createdAt,value
2018-08-13T00:01:10.450Z,1.90
2018-08-13T00:03:39.919Z,1.80
2018-08-13T00:06:09.184Z,1.75
2018-08-13T00:08:37.990Z,1.80
2018-08-13T00:11:06.740Z,2.00
2018-08-13T00:13:35.742Z,2.12
2018-08-13T00:16:04.855Z,3.80
2018-08-13T00:18:33.857Z,1.98
2018-08-13T00:21:02.790Z,1.75
2018-08-13T00:23:31.918Z,2.55
2018-08-13T00:26:01.443Z,1.77
2018-08-13T00:28:30.194Z,2.10
2018-08-13T00:30:58.978Z,1.80
2018-08-13T00:33:28.149Z,1.80
2018-08-13T00:35:56.961Z,2.55
2018-08-13T00:38:25.840Z,3.90
2018-08-13T00:40:54.814Z,1.80
2018-08-13T00:43:23.707Z,1.70
2018-08-13T00:45:52.652Z,2.45
2018-08-13T00:48:21.288Z,1.67
2018-08-13T00:50:50.318Z,1.67
2018-08-13T00:53:19.463Z,1.98
2018-08-13T00:55:48.517Z,2.22
2018-08-13T00:58:17.713Z,1.62
2018-08-13T01:00:46.544Z,1.82
2018-08-13T01:03:15.718Z,2.45
2018-08-13T01:05:44.342Z,3.02
2018-08-13T01:08:13.113Z,2.27
2018-08-13T01:10:42.192Z,1.92
2018-08-13T01:13:10.898Z,2.22
2018-08-13T01:15:39.633Z,1.80
2018-08-13T01:18:08.509Z,2.20
2018-08-13T01:20:37.772Z,2.12
2018-08-13T01:23:06.741Z,1.65
2018-08-13T01:25:35.517Z,1.80
2018-08-13T01:28:04.585Z,2.12
2018-08-13T01:30:33.299Z,1.82
2018-08-13T01:33:01.786Z,1.50
2018-08-13T01:35:31.134Z,1.82
2018-08-13T01:37:59.911Z,1.65
2018-08-13T01:40:29.104Z,1.90
2018-08-13T01:42:57.837Z,2.33
2018-08-13T01:45:26.932Z,2.25
2018-08-13T01:47:56.027Z,2.00
2018-08-13T01:50:24.969Z,2.33
2018-08-13T01:52:53.768Z,1.80
2018-08-13T01:55:22.812Z,1.95
2018-08-13T01:57:51.828Z,1.85
2018-08-13T02:00:21.108Z,1.80
2018-08-13T02:02:50.006Z,1.72
2018-08-13T02:05:19.323Z,1.87
2018-08-13T02:07:48.304Z,2.33
2018-08-13T02:10:17.236Z,1.95
2018-08-13T02:12:46.047Z,1.70
2018-08-13T02:15:15.067Z,2.55
2018-08-13T02:17:43.759Z,1.62
2018-08-13T02:20:12.905Z,1.70
2018-08-13T02:22:41.800Z,1.70
2018-08-13T02:25:10.817Z,1.50
2018-08-13T02:27:40.204Z,1.82
2018-08-13T02:30:11.118Z,1.85
2018-08-13T02:32:40.055Z,1.65
2018-08-13T02:35:09.868Z,1.50
2018-08-13T02:37:39.263Z,2.90
2018-08-13T02:40:09.648Z,1.50
2018-08-13T02:42:38.487Z,1.65
2018-08-13T02:45:09.637Z,2.37
2018-08-13T02:47:38.744Z,1.70
2018-08-13T02:50:10.028Z,1.92
2018-08-13T02:52:39.359Z,1.95
2018-08-13T02:55:08.704Z,1.80
2018-08-13T02:57:37.713Z,1.82
2018-08-13T03:00:08.131Z,2.60
2018-08-13T03:02:37.328Z,2.72
2018-08-13T03:05:08.282Z,2.00
2018-08-13T03:07:37.043Z,1.90
2018-08-13T03:10:08.909Z,1.67
2018-08-13T03:12:37.845Z,1.62
2018-08-13T03:15:09.385Z,2.33
2018-08-13T03:17:38.212Z,1.80
2018-08-13T03:20:07.718Z,1.60
2018-08-13T03:22:37.001Z,2.33
2018-08-13T03:25:08.430Z,2.40
2018-08-13T03:27:37.815Z,1.98
2018-08-13T03:30:09.657Z,1.70
2018-08-13T03:32:38.814Z,2.77
2018-08-13T03:35:07.938Z,1.57
2018-08-13T03:37:37.340Z,2.92
2018-08-13T03:40:08.667Z,1.98
2018-08-13T03:42:37.309Z,1.70
2018-08-13T03:45:07.776Z,1.50
2018-08-13T03:47:36.929Z,2.30
2018-08-13T03:50:07.924Z,1.82
2018-08-13T03:52:36.868Z,2.10
2018-08-13T03:55:08.036Z,2.40
2018-08-13T03:57:37.107Z,2.63
2018-08-13T04:00:14.479Z,2.07
2018-08-13T04:02:43.707Z,1.80
2018-08-13T04:05:13.946Z,3.60
2018-08-13T04:07:42.740Z,2.20
2018-08-13T04:10:12.813Z,2.10
2018-08-13T04:12:43.108Z,1.80
2018-08-13T04:15:13.253Z,1.77
2018-08-13T04:17:42.561Z,2.97
2018-08-13T04:20:14.525Z,1.80
2018-08-13T04:22:44.249Z,2.13
2018-08-13T04:25:12.901Z,2.67
2018-08-13T04:27:41.955Z,1.97
2018-08-13T04:30:14.419Z,1.80
2018-08-13T04:32:44.526Z,2.30
2018-08-13T04:35:13.162Z,2.10
2018-08-13T04:37:43.052Z,2.00
2018-08-13T04:40:14.624Z,1.80
2018-08-13T04:42:44.813Z,2.10
2018-08-13T04:45:14.292Z,2.57
2018-08-13T04:47:48.106Z,1.70
2018-08-13T04:50:16.854Z,2.37
2018-08-13T04:52:45.698Z,1.70
2018-08-13T04:55:14.398Z,2.73
2018-08-13T04:57:43.424Z,1.80
2018-08-13T05:00:12.168Z,1.57
2018-08-13T05:02:41.018Z,4.42
2018-08-13T05:05:11.011Z,2.70
2018-08-13T05:07:40.260Z,2.05
2018-08-13T05:10:10.380Z,1.90
2018-08-13T05:12:39.848Z,4.92
2018-08-13T05:15:09.641Z,2.97
2018-08-13T05:17:38.332Z,2.45
2018-08-13T05:20:08.347Z,2.03
2018-08-13T05:22:37.077Z,2.07
2018-08-13T05:25:06.947Z,4.63
2018-08-13T05:27:35.805Z,3.50
2018-08-13T05:30:05.693Z,3.33
2018-08-13T05:32:34.444Z,2.13
2018-08-13T05:35:03.220Z,2.80
2018-08-13T05:37:31.855Z,4.27
2018-08-13T05:40:00.580Z,2.40
2018-08-13T05:42:29.266Z,3.20
2018-08-13T05:44:57.942Z,3.67
2018-08-13T05:47:26.673Z,3.23
2018-08-13T05:49:55.361Z,4.05
2018-08-13T05:52:24.085Z,2.00
2018-08-13T05:54:52.766Z,3.45
2018-08-13T05:57:21.458Z,3.33
2018-08-13T05:59:50.168Z,8.50
2018-08-13T06:02:19.003Z,1.72
2018-08-13T06:04:47.922Z,2.00
2018-08-13T06:07:16.545Z,2.55
2018-08-13T06:09:45.698Z,2.62
2018-08-13T06:12:14.392Z,1.82
2018-08-13T06:14:43.200Z,2.05
2018-08-13T06:17:11.896Z,4.47
2018-08-13T06:19:40.552Z,3.00
2018-08-13T06:22:09.689Z,2.20
2018-08-13T06:24:38.399Z,3.80
2018-08-13T06:27:07.215Z,1.80
2018-08-13T06:29:35.867Z,2.27
2018-08-13T06:32:04.793Z,2.40
2018-08-13T06:34:33.396Z,4.20
2018-08-13T06:37:02.218Z,4.78
2018-08-13T06:39:30.918Z,3.72
2018-08-13T06:41:59.681Z,3.62
2018-08-13T06:44:28.399Z,2.55
2018-08-13T06:46:57.112Z,2.10
2018-08-13T06:49:25.843Z,2.30
2018-08-13T06:51:54.585Z,3.05
2018-08-13T06:54:23.255Z,2.55
2018-08-13T06:56:52.032Z,2.37
2018-08-13T06:59:20.756Z,3.87
2018-08-13T07:01:49.497Z,3.83
2018-08-13T07:04:18.237Z,3.17
2018-08-13T07:06:47.088Z,1.90
2018-08-13T07:09:15.834Z,1.75
2018-08-13T07:11:44.522Z,2.17
2018-08-13T07:14:13.260Z,2.35
2018-08-13T07:16:41.999Z,2.00
2018-08-13T07:19:10.817Z,3.17
2018-08-13T07:21:40.009Z,1.82
2018-08-13T07:24:08.857Z,4.72
2018-08-13T07:26:37.537Z,2.08
2018-08-13T07:29:06.373Z,3.05
2018-08-13T07:31:35.036Z,2.00
2018-08-13T07:34:03.816Z,2.27
2018-08-13T07:36:33.050Z,2.92
2018-08-13T07:39:01.789Z,3.55
2018-08-13T07:41:30.406Z,1.92
2018-08-13T07:43:59.094Z,2.42
2018-08-13T07:46:27.810Z,3.72
2018-08-13T07:48:56.488Z,2.10
2018-08-13T07:51:25.227Z,2.83
2018-08-13T07:53:53.856Z,2.20
2018-08-13T07:56:22.499Z,4.60
2018-08-13T07:58:51.278Z,3.33
2018-08-13T08:01:19.983Z,8.15
2018-08-13T08:03:48.705Z,4.62
2018-08-13T08:06:17.318Z,4.10
2018-08-13T08:08:46.081Z,3.70
2018-08-13T08:11:14.872Z,6.53
2018-08-13T08:13:43.745Z,2.80
2018-08-13T08:16:12.670Z,3.35
2018-08-13T08:18:41.534Z,4.37
2018-08-13T08:21:10.196Z,3.47
2018-08-13T08:23:38.901Z,3.00
2018-08-13T08:26:07.708Z,4.30
2018-08-13T08:28:36.333Z,5.55
2018-08-13T08:31:05.060Z,4.72
2018-08-13T08:33:33.740Z,6.08
2018-08-13T08:36:02.517Z,3.72
2018-08-13T08:38:31.284Z,3.52
2018-08-13T08:41:00.094Z,2.90
2018-08-13T08:43:28.794Z,3.90
2018-08-13T08:45:57.548Z,3.95
2018-08-13T08:48:26.263Z,4.62
2018-08-13T08:50:54.960Z,4.95
2018-08-13T08:53:23.716Z,2.60
2018-08-13T08:55:52.419Z,4.90
2018-08-13T08:58:21.118Z,2.83
2018-08-13T09:00:49.826Z,3.85
2018-08-13T09:03:18.524Z,3.02
2018-08-13T09:05:47.241Z,4.35
2018-08-13T09:08:15.888Z,4.47
2018-08-13T09:10:44.674Z,5.00
2018-08-13T09:13:13.301Z,2.80
2018-08-13T09:15:42.004Z,2.90
2018-08-13T09:18:21.664Z,5.33
2018-08-13T09:21:01.491Z,4.25
2018-08-13T09:23:42.441Z,3.12
2018-08-13T09:26:22.109Z,4.92
2018-08-13T09:29:02.014Z,5.50
2018-08-13T09:31:41.724Z,4.25
2018-08-13T09:36:24.033Z,3.22
2018-08-13T09:38:53.096Z,3.10
2018-08-13T09:41:21.736Z,3.00
2018-08-13T09:43:50.431Z,2.90
2018-08-13T09:46:19.294Z,3.10
2018-08-13T09:48:47.992Z,3.83
2018-08-13T09:51:17.318Z,4.78
2018-08-13T09:53:46.108Z,7.95
2018-08-13T09:56:14.937Z,3.50
2018-08-13T09:58:43.633Z,3.47
2018-08-13T10:01:13.410Z,3.35
2018-08-13T10:03:42.646Z,2.50
2018-08-13T10:06:11.837Z,10.28
2018-08-13T10:08:40.636Z,3.45
2018-08-13T10:11:13.471Z,2.47
2018-08-13T10:13:43.229Z,2.45
2018-08-13T10:16:11.964Z,3.22
2018-08-13T10:18:40.673Z,2.95
2018-08-13T10:21:09.361Z,2.80
2018-08-13T10:23:38.116Z,3.20
2018-08-13T10:26:06.848Z,2.35
2018-08-13T10:28:35.615Z,3.55
2018-08-13T10:31:04.399Z,2.15
2018-08-13T10:33:33.041Z,4.10
2018-08-13T10:36:01.742Z,4.90
2018-08-13T10:38:30.513Z,2.98
2018-08-13T10:40:59.326Z,2.40
2018-08-13T10:43:28.134Z,2.67
2018-08-13T10:45:56.862Z,3.92
2018-08-13T10:48:25.541Z,2.83
2018-08-13T10:50:58.053Z,3.83
2018-08-13T10:53:26.884Z,2.95
2018-08-13T10:55:55.736Z,3.67
2018-08-13T10:58:24.444Z,4.25
2018-08-13T11:00:53.105Z,2.70
2018-08-13T11:03:21.840Z,3.62
2018-08-13T11:05:50.519Z,2.98
2018-08-13T11:08:19.214Z,2.75
2018-08-13T11:10:47.966Z,2.20
2018-08-13T11:13:17.235Z,2.50
2018-08-13T11:15:46.387Z,7.33
2018-08-13T11:18:15.139Z,2.80
2018-08-13T11:20:43.991Z,2.95
2018-08-13T11:23:12.699Z,2.85
2018-08-13T11:25:42.490Z,2.70
2018-08-13T11:28:11.152Z,3.10
2018-08-13T11:30:39.904Z,2.90
2018-08-13T11:33:08.618Z,3.72
2018-08-13T11:35:37.301Z,3.62
2018-08-13T11:38:06.201Z,4.45
2018-08-13T11:40:34.649Z,4.28
2018-08-13T11:43:03.333Z,2.90
2018-08-13T11:45:31.970Z,2.70
2018-08-13T11:48:00.693Z,3.83
2018-08-13T11:50:29.380Z,4.58
2018-08-13T11:52:58.079Z,4.22
2018-08-13T11:55:26.742Z,4.08
2018-08-13T11:57:55.397Z,3.55
2018-08-13T12:00:24.068Z,3.17
2018-08-13T12:02:53.644Z,4.12
2018-08-13T12:05:22.349Z,4.70
2018-08-13T12:07:51.064Z,3.20
2018-08-13T12:10:19.704Z,3.10
2018-08-13T12:12:48.315Z,4.08
2018-08-13T12:15:17.024Z,2.70
2018-08-13T12:17:45.839Z,3.50
2018-08-13T12:20:18.474Z,3.55
2018-08-13T12:22:47.353Z,4.08
2018-08-13T12:25:31.654Z,3.33
2018-08-13T12:28:00.362Z,2.75
2018-08-13T12:30:29.047Z,4.80
2018-08-13T12:32:57.769Z,3.05
2018-08-13T12:35:26.478Z,2.52
2018-08-13T12:37:55.164Z,5.80
2018-08-13T12:40:23.896Z,2.90
2018-08-13T12:42:52.631Z,2.70
2018-08-13T12:45:21.287Z,2.52
2018-08-13T12:47:50.056Z,2.80
2018-08-13T12:50:19.993Z,4.25
2018-08-13T12:52:49.879Z,2.58
2018-08-13T12:55:18.724Z,2.33
2018-08-13T12:57:47.495Z,2.55
2018-08-13T13:00:17.636Z,2.65
2018-08-13T13:02:46.416Z,2.35
2018-08-13T13:05:16.315Z,5.22
2018-08-13T13:07:44.980Z,3.92
2018-08-13T13:10:15.044Z,2.05
2018-08-13T13:12:44.142Z,2.22
2018-08-13T13:15:14.525Z,3.15
2018-08-13T13:17:43.299Z,2.33
2018-08-13T13:20:17.256Z,3.83
2018-08-13T13:22:46.219Z,1.90
2018-08-13T13:25:15.263Z,2.35
2018-08-13T13:27:44.551Z,3.00
2018-08-13T13:30:16.518Z,3.15
2018-08-13T13:32:45.587Z,2.40
2018-08-13T13:35:17.325Z,2.87
2018-08-13T13:37:46.236Z,2.05
2018-08-13T13:40:16.205Z,3.00
2018-08-13T13:42:45.130Z,2.85
2018-08-13T13:45:15.568Z,2.27
2018-08-13T13:47:44.668Z,2.00
2018-08-13T13:50:15.675Z,2.27
2018-08-13T13:52:44.779Z,3.70
2018-08-13T13:55:14.157Z,2.83
2018-08-13T13:57:42.878Z,2.83
2018-08-13T14:00:18.683Z,3.22
2018-08-13T14:02:53.920Z,2.92
2018-08-13T14:05:22.861Z,3.58
2018-08-13T14:07:51.782Z,2.85
2018-08-13T14:10:21.734Z,5.58
2018-08-13T14:12:50.447Z,2.75
2018-08-13T14:15:20.469Z,2.92
2018-08-13T14:17:49.853Z,2.10
2018-08-13T14:20:18.708Z,2.12
2018-08-13T14:22:47.521Z,2.00
2018-08-13T14:25:16.463Z,3.37
2018-08-13T14:27:45.157Z,2.33
2018-08-13T14:30:21.684Z,6.22
2018-08-13T14:32:50.682Z,3.83
2018-08-13T14:35:20.535Z,4.50
2018-08-13T14:37:49.300Z,2.70
2018-08-13T14:40:18.191Z,3.67
2018-08-13T14:42:46.978Z,3.95
2018-08-13T14:45:17.331Z,3.60
2018-08-13T14:47:47.424Z,5.08
2018-08-13T14:50:16.202Z,3.40
2018-08-13T14:52:46.100Z,2.33
2018-08-13T14:55:17.084Z,2.50
2018-08-13T14:57:46.037Z,3.08
2018-08-13T15:00:38.189Z,3.52
2018-08-13T15:03:10.999Z,3.37
2018-08-13T15:05:40.387Z,2.45
2018-08-13T15:08:09.177Z,2.50
2018-08-13T15:10:37.990Z,2.52
2018-08-13T15:13:06.775Z,3.72
2018-08-13T15:15:35.502Z,3.60
2018-08-13T15:18:04.302Z,5.28
2018-08-13T15:20:33.123Z,3.65
2018-08-13T15:23:01.877Z,6.30
2018-08-13T15:25:31.157Z,2.35
2018-08-13T15:28:00.018Z,1.75
2018-08-13T15:30:28.757Z,2.10
2018-08-13T15:32:57.536Z,1.92
2018-08-13T15:35:26.259Z,2.22
2018-08-13T15:37:54.912Z,2.67
2018-08-13T15:40:23.752Z,2.27
2018-08-13T15:42:52.409Z,2.77
2018-08-13T15:45:22.970Z,2.80
2018-08-13T15:47:51.745Z,3.15
2018-08-13T15:50:21.415Z,2.90
2018-08-13T15:52:50.563Z,3.00
2018-08-13T15:55:19.481Z,2.65
2018-08-13T15:57:48.596Z,2.83
2018-08-13T16:00:20.276Z,3.10
2018-08-13T16:02:49.290Z,3.55
2018-08-13T16:05:18.217Z,2.83
2018-08-13T16:07:47.296Z,2.77
2018-08-13T16:10:16.850Z,3.60
2018-08-13T16:12:46.099Z,3.70
2018-08-13T16:15:14.996Z,2.72
2018-08-13T16:17:43.773Z,3.02
2018-08-13T16:20:14.713Z,1.10
2018-08-13T16:22:44.063Z,1.50
2018-08-13T16:25:12.800Z,1.60
2018-08-13T16:27:41.605Z,1.50
2018-08-13T16:30:11.788Z,2.12
2018-08-13T16:32:40.424Z,1.52
2018-08-13T16:35:09.137Z,1.92
2018-08-13T16:37:37.793Z,1.85
2018-08-13T16:40:06.636Z,2.17
2018-08-13T16:42:35.431Z,3.03
2018-08-13T16:45:04.729Z,2.40
2018-08-13T16:47:33.377Z,2.17
2018-08-13T16:50:02.108Z,3.55
2018-08-13T16:52:30.953Z,2.20
2018-08-13T16:54:59.629Z,2.37
2018-08-13T16:57:28.351Z,2.27
2018-08-13T16:59:57.013Z,2.50
2018-08-13T17:02:25.773Z,2.30
2018-08-13T17:04:54.397Z,2.45
2018-08-13T17:07:23.108Z,2.47
2018-08-13T17:09:51.815Z,2.83
2018-08-13T17:12:20.508Z,2.80
2018-08-13T17:14:49.255Z,2.65
2018-08-13T17:17:17.960Z,3.30
2018-08-13T17:19:46.977Z,2.33
2018-08-13T17:22:15.727Z,2.40
2018-08-13T17:24:44.409Z,2.75
2018-08-13T17:27:13.144Z,2.45
2018-08-13T17:29:42.037Z,3.52
2018-08-13T17:32:10.660Z,3.35
2018-08-13T17:34:39.355Z,3.50
2018-08-13T17:37:08.063Z,3.50
2018-08-13T17:39:36.941Z,3.77
2018-08-13T17:42:05.656Z,3.27
2018-08-13T17:44:34.765Z,3.85
2018-08-13T17:47:03.454Z,3.58
2018-08-13T17:49:32.170Z,4.20
2018-08-13T17:52:00.885Z,4.40
2018-08-13T17:54:29.549Z,4.28
2018-08-13T17:56:58.188Z,3.85
2018-08-13T17:59:26.882Z,4.30
2018-08-13T18:01:55.669Z,3.90
2018-08-13T18:04:24.396Z,3.90
2018-08-13T18:06:53.161Z,3.98
2018-08-13T18:09:22.002Z,3.87
2018-08-13T18:11:50.707Z,4.22
2018-08-13T18:14:19.575Z,4.33
2018-08-13T18:16:48.280Z,4.25
2018-08-13T18:19:17.039Z,4.37
2018-08-13T18:21:45.705Z,4.20
2018-08-13T18:24:14.390Z,4.72
2018-08-13T18:26:43.130Z,4.78
2018-08-13T18:29:11.807Z,4.78
2018-08-13T18:31:42.581Z,5.17
2018-08-13T18:34:11.293Z,5.10
2018-08-13T18:36:39.942Z,7.00
2018-08-13T18:39:09.157Z,5.40
2018-08-13T18:41:37.781Z,6.10
2018-08-13T18:44:08.242Z,5.90
2018-08-13T18:46:37.300Z,6.45
2018-08-13T18:49:05.969Z,6.22
2018-08-13T18:51:34.860Z,7.65
2018-08-13T18:54:03.650Z,6.30
2018-08-13T18:56:32.348Z,6.15
2018-08-13T18:59:01.066Z,5.75
2018-08-13T19:01:29.769Z,5.97
2018-08-13T19:03:58.577Z,5.83
2018-08-13T19:06:28.824Z,6.83
2018-08-13T19:08:57.612Z,6.27
2018-08-13T19:11:26.469Z,6.00
2018-08-13T19:13:55.208Z,5.58
2018-08-13T19:16:23.846Z,6.35
2018-08-13T19:18:52.495Z,5.20
2018-08-13T19:21:21.197Z,5.67
2018-08-13T19:23:49.834Z,5.28
2018-08-13T19:26:18.440Z,5.80
2018-08-13T19:28:47.185Z,5.90
2018-08-13T19:31:15.833Z,6.73
2018-08-13T19:33:44.530Z,6.23
2018-08-13T19:36:13.301Z,5.83
2018-08-13T19:38:41.984Z,5.70
2018-08-13T19:41:10.723Z,5.20
2018-08-13T19:43:39.397Z,6.72
2018-08-13T19:46:08.171Z,4.90
2018-08-13T19:48:36.771Z,4.92
2018-08-13T19:51:06.647Z,4.97
2018-08-13T19:53:35.321Z,4.30
2018-08-13T19:56:03.988Z,5.03
2018-08-13T19:58:32.718Z,5.42
2018-08-13T20:01:01.398Z,4.90
2018-08-13T20:03:30.113Z,5.35
2018-08-13T20:05:58.838Z,5.87
2018-08-13T20:08:27.492Z,6.17
2018-08-13T20:10:59.150Z,6.42
2018-08-13T20:13:27.819Z,6.10
2018-08-13T20:15:56.557Z,6.85
2018-08-13T20:18:25.222Z,6.90
2018-08-13T20:20:54.048Z,10.03
2018-08-13T20:23:22.736Z,6.60
2018-08-13T20:25:51.464Z,7.37
2018-08-13T20:28:20.149Z,7.65
2018-08-13T20:30:48.883Z,8.48
2018-08-13T20:33:38.378Z,8.58
2018-08-13T20:36:07.078Z,8.15
2018-08-13T20:38:35.774Z,9.15
2018-08-13T20:41:04.536Z,10.32
2018-08-13T20:43:33.179Z,10.15
2018-08-13T20:46:01.865Z,9.90
2018-08-13T20:48:30.641Z,10.32
2018-08-13T20:50:59.359Z,11.05
2018-08-13T20:53:28.034Z,9.60
2018-08-13T20:55:56.736Z,10.40
2018-08-13T20:58:25.500Z,10.28
2018-08-13T21:00:54.280Z,10.13
2018-08-13T21:03:22.966Z,11.50
2018-08-13T21:05:51.717Z,9.95
2018-08-13T21:08:20.433Z,10.90
2018-08-13T21:10:49.128Z,10.60
2018-08-13T21:13:17.746Z,13.43
2018-08-13T21:15:46.537Z,11.40
2018-08-13T21:18:15.197Z,11.50
2018-08-13T21:20:44.023Z,11.43
2018-08-13T21:23:12.686Z,12.00
2018-08-13T21:25:41.485Z,12.27
2018-08-13T21:28:10.142Z,11.60
2018-08-13T21:30:38.864Z,11.30
2018-08-13T21:33:07.493Z,13.77
2018-08-13T21:35:36.188Z,11.90
2018-08-13T21:38:04.992Z,12.23
2018-08-13T21:40:33.727Z,13.27
2018-08-13T21:43:02.439Z,12.27
2018-08-13T21:45:31.121Z,13.47
2018-08-13T21:47:59.794Z,12.53
2018-08-13T21:50:28.517Z,13.50
2018-08-13T21:52:57.197Z,13.53
2018-08-13T21:55:25.962Z,13.30
2018-08-13T21:57:54.707Z,13.33
2018-08-13T22:00:26.586Z,12.97
2018-08-13T22:02:55.985Z,13.30
2018-08-13T22:05:24.737Z,13.40
2018-08-13T22:07:53.533Z,11.97
2018-08-13T22:10:22.269Z,12.33
2018-08-13T22:12:50.936Z,13.43
2018-08-13T22:15:28.467Z,12.93
2018-08-13T22:17:58.594Z,16.60
2018-08-13T22:20:27.697Z,12.57
2018-08-13T22:22:57.550Z,11.73
2018-08-13T22:25:31.294Z,12.53
2018-08-13T22:28:01.108Z,12.63
2018-08-13T22:30:31.291Z,13.00
2018-08-13T22:32:59.982Z,13.50
2018-08-13T22:35:28.690Z,13.07
2018-08-13T22:37:57.359Z,13.80
2018-08-13T22:40:26.108Z,15.00
2018-08-13T22:42:54.956Z,14.43
2018-08-13T22:45:24.308Z,12.80
2018-08-13T22:47:53.075Z,13.43
2018-08-13T22:50:21.894Z,13.87
2018-08-13T22:52:50.642Z,13.90
2018-08-13T22:55:19.617Z,13.17
2018-08-13T22:57:48.759Z,14.10
2018-08-13T23:00:19.589Z,14.03
2018-08-13T23:02:49.039Z,14.43
2018-08-13T23:05:25.931Z,15.63
2018-08-13T23:07:54.763Z,14.33
2018-08-13T23:10:24.474Z,13.87
2018-08-13T23:12:54.687Z,13.30
2018-08-13T23:15:23.706Z,15.00
2018-08-13T23:17:53.078Z,13.63
2018-08-13T23:20:26.151Z,13.33
2018-08-13T23:22:59.863Z,12.57
2018-08-13T23:25:29.276Z,13.53
2018-08-13T23:27:59.063Z,12.23
2018-08-13T23:30:27.941Z,13.50
2018-08-13T23:32:57.502Z,13.63
2018-08-13T23:35:26.729Z,13.93
2018-08-13T23:37:55.614Z,13.23
2018-08-13T23:40:24.845Z,13.00
2018-08-13T23:42:53.569Z,13.63
2018-08-13T23:45:25.115Z,12.97
2018-08-13T23:47:53.844Z,15.43
2018-08-13T23:50:23.703Z,14.20
2018-08-13T23:52:53.666Z,15.17
2018-08-13T23:55:34.295Z,16.70
2018-08-13T23:58:03.771Z,15.80
